»·PEaware :: N1836 MMTJ-KSNA

N1836 :: MMTJ-KSNA

FLIGHT INFORMATION

Flight Status: Arrived
Operator: Privately registered:
United States
More flights under this callsign
Pilot: Sergio L. (2230)
Aircraft: Unknown
(SF50)
More flights by this aircraft type
Origin: MMTJ Gen Abelardo L Rodriguez Intl
Mexico
Destination: KSNA John Wayne-Orange Co
United States
More flights between these airports :: More routes between these airports
Route: +MZB MZB293R SLI148R SLI
File this flight plan on PilotEdge
Remarks: TEC ROUTE SANN4 from SDM
Altitude:
(Current/Filed)
10,000ft
Speed:
(Current/Filed)
250kts
Departed: 26-Mar-18 08:17 PM
Arrived: 26-Mar-18 09:01 PM
Distance/Time
Traveled:
82nm/0:44
Distance/Time
To Go:
Arrived

Flight Plot

Page will automatically refresh every two minutes.

Flight plan parsing failed; only flown route is shown


Map Options




Map Legend


Flown Route
Filed Route
Departure Airport
Arrival Airport
Navaid (VOR, NDB)
Fix

Horizontal Profiles

Position Reports

Time Latitude Longitude Heading Altitude Ground
Speed
26-Mar-18 19:56 32.545722 -116.979630 80 492ft 0kts
26-Mar-18 19:57 32.545722 -116.979630 80 492ft 0kts
26-Mar-18 19:58 32.545722 -116.979630 80 492ft 0kts
26-Mar-18 19:59 32.545729 -116.979504 87 492ft 0kts
26-Mar-18 20:00 32.545732 -116.979276 90 493ft 0kts
26-Mar-18 20:01 32.545731 -116.979192 91 493ft 0kts
26-Mar-18 20:02 32.545731 -116.979192 91 493ft 0kts
26-Mar-18 20:03 32.545731 -116.979192 91 493ft 0kts
26-Mar-18 20:04 32.545731 -116.979192 91 493ft 0kts
26-Mar-18 20:05 32.545731 -116.979192 91 493ft 0kts
26-Mar-18 20:06 32.545731 -116.979192 91 493ft 0kts
26-Mar-18 20:07 32.544603 -116.978185 159 492ft 13kts
26-Mar-18 20:12 32.544886 -116.977823 187 492ft 9kts
26-Mar-18 20:13 32.543771 -116.974321 91 492ft 13kts
26-Mar-18 20:14 32.543227 -116.972204 151 493ft 1kts
26-Mar-18 20:15 32.541400 -116.971735 107 493ft 39kts
26-Mar-18 20:16 32.517022 -116.929672 146 2134ft 217kts
26-Mar-18 20:17 32.464351 -116.907674 198 5084ft 204kts
26-Mar-18 20:18 32.446035 -116.866887 71 7599ft 211kts
26-Mar-18 20:19 32.465160 -116.800303 71 9915ft 219kts
26-Mar-18 20:20 32.484898 -116.731649 71 9999ft 220kts
26-Mar-18 20:21 32.504553 -116.663314 71 10000ft 220kts
26-Mar-18 20:22 32.525450 -116.595446 56 9996ft 220kts
26-Mar-18 20:23 32.580479 -116.579590 351 10001ft 220kts
26-Mar-18 20:24 32.637381 -116.598977 303 9992ft 220kts
26-Mar-18 20:25 32.621465 -116.665126 252 10001ft 220kts
26-Mar-18 20:26 32.607125 -116.735379 259 9999ft 220kts
26-Mar-18 20:27 32.602225 -116.806358 284 9876ft 219kts
26-Mar-18 20:28 32.618282 -116.875700 285 9871ft 219kts
26-Mar-18 20:29 32.634450 -116.945422 285 9871ft 219kts
26-Mar-18 20:30 32.650532 -117.014944 285 9877ft 226kts
26-Mar-18 20:31 32.677846 -117.079937 329 9885ft 231kts
26-Mar-18 20:32 32.733061 -117.114758 312 9860ft 230kts
26-Mar-18 20:33 32.773764 -117.171608 305 9871ft 231kts
26-Mar-18 20:34 32.803616 -117.235987 297 9872ft 231kts
26-Mar-18 20:35 32.835345 -117.299475 305 9872ft 231kts
26-Mar-18 20:36 32.874488 -117.360361 308 9871ft 231kts
26-Mar-18 20:37 32.914558 -117.419860 308 9871ft 231kts
26-Mar-18 20:38 32.954722 -117.479203 308 9871ft 231kts
26-Mar-18 20:39 32.995003 -117.538762 308 9871ft 231kts
26-Mar-18 20:40 33.035249 -117.598357 308 9871ft 231kts
26-Mar-18 20:41 33.075440 -117.657967 308 9871ft 231kts
26-Mar-18 20:42 33.115617 -117.717652 308 9871ft 231kts
26-Mar-18 20:43 33.155702 -117.777285 308 9871ft 231kts
26-Mar-18 20:44 33.200913 -117.831569 316 9871ft 231kts
26-Mar-18 20:45 33.248278 -117.883102 327 9875ft 231kts
26-Mar-18 20:46 33.307413 -117.911596 343 9872ft 231kts
26-Mar-18 20:47 33.369825 -117.931600 346 9537ft 230kts
26-Mar-18 20:48 33.428166 -117.949097 346 8508ft 204kts
26-Mar-18 20:49 33.482493 -117.965249 346 7508ft 200kts
26-Mar-18 20:50 33.537012 -117.968627 1 6512ft 198kts
26-Mar-18 20:51 33.588365 -117.966891 1 5569ft 195kts
26-Mar-18 20:52 33.633714 -117.965311 2 4724ft 192kts
26-Mar-18 20:53 33.673020 -117.944349 31 3893ft 190kts
26-Mar-18 20:54 33.708250 -117.918290 31 3069ft 178kts
26-Mar-18 20:55 33.746768 -117.892656 22 2141ft 170kts
26-Mar-18 20:56 33.750508 -117.854587 129 1816ft 128kts
26-Mar-18 20:57 33.727778 -117.835113 187 1567ft 96kts
26-Mar-18 20:58 33.703214 -117.850617 213 909ft 116kts
26-Mar-18 20:59 33.679469 -117.866428 207 62ft 81kts
26-Mar-18 21:00 33.672333 -117.871486 255 60ft 6kts
26-Mar-18 21:01 33.670362 -117.874125 222 61ft 8kts
26-Mar-18 21:02 33.670089 -117.874802 12 60ft 0kts
26-Mar-18 21:03 33.670089 -117.874802 12 60ft 0kts

Navigation Log

Ident Type
Flight plan parsing failed, navigation log unavailable